FMEENTAA

Guest
Details From FMEE - St Denis Gillot
To NTAA - Faaa
Flight Number -
Tags Generated
Created
Modified
Stats Distance 8,069 nm / 14,943 km
Max Altitude 0 ft / 0 m
Waypoints 3
Social Downloads 0
Likes 0
Share VATSIM

Download

Looking for another format? Having issues loading an existing format? Contact us
Advertisement - Login to hide

Notes

Generated

Route

FMEE OVINI NTAA

ID Type Via Altitude Latitude Longitude Leg Dist Tot Dist Heading (true) Name
O FMEE APT - 0 ft / 0 m -20.88418˚ 55.50412˚ - 0 nm - -
OVINI FIX - 0 ft / 0 m -17.68097˚ -149.78033˚ 8057 nm 8057 nm 145° / 34° -
O NTAA APT - 0 ft / 0 m -17.56288˚ -149.62043˚ 11 nm 8068 nm 52° / 52° -

Altitude Profile

Advertisement - Login to hide

Weather


0- 5 10 15 20 25 30 35+ Temperature / ° C

Clouds and Precipitation
Forecast for 2017-12-18 18:00 UTC. Updated 2 hours ago

Ground ~20,000 ft ~40,000 ft Winds

FMEE

Details ICAO FMEE (RUN)
Name St Denis Gillot
Region Comoros, Mayotte, Réunion and Madagascar
Timezone Indian/Reunion (UTC+4.0)
Stats Elevation 66 ft / 20 m (AMSL)
Location -20.889313° 55.517752°
Runways 2
Magnetic Variation 18.981° W

METAR

FMEE 181900Z AUTO 13010KT CAVOK 25/18 Q1016 NOSIG

Decode

TAF

TAF FMEE 181100Z 1812/1918 08015KT 9999 FEW030 SCT300 BECMG 1814/1816 15005KT PROB30 TEMPO 1818/1904 4500 SHRA BECMG 1904/1906 07015KT TEMPO 1907/1912 07015G25KT BECMG 1914/1916 15005KT

Decode

Departure Runways

ID Width Length Bearing (true) Bearing (mag) Surface Threshold Offset Overrun Length
12 148 ft / 45 m 10,581 ft / 3,225 m 102.26° 121.24° Asphalt 397 ft / 121 m 148 ft / 45 m
14 148 ft / 45 m 8,842 ft / 2,695 m 116.55° 135.53° Asphalt 338 ft / 103 m 98 ft / 30 m
30 148 ft / 45 m 10,581 ft / 3,225 m 282.25° 301.23° Asphalt 0 ft / 0 m 0 ft / 0 m
32 148 ft / 45 m 8,842 ft / 2,695 m 296.54° 315.52° Asphalt 1,175 ft / 358 m 377 ft / 115 m

NTAA

Details ICAO NTAA (PPT)
Name Faaa
Region French Polynesia
Timezone Pacific/Tahiti (UTC-10.0)
Stats Elevation 5 ft / 2 m (AMSL)
Location -17.553765° -149.607255°
Runways 1
Magnetic Variation 12.875° E

METAR

NTAA 181900Z 36014KT 9999 VCSH FEW020 BKN230 28/24 Q1011 NOSIG

Decode

TAF

TAF NTAA 181700Z 1818/1924 05010KT 9999 FEW020 BKN150 BECMG 1904/1906 VRB03KT

Decode

Destination Runways

ID Width Length Bearing (true) Bearing (mag) Surface Threshold Offset Overrun Length
04 148 ft / 45 m 11,323 ft / 3,451 m 54.04° 41.16° Asphalt 1,099 ft / 335 m 0 ft / 0 m
22 148 ft / 45 m 11,323 ft / 3,451 m 234.03° 221.15° Asphalt 479 ft / 146 m 0 ft / 0 m

Approach Navaids

Runway Type Ident Frequency Range Bearing (true) Bearing (mag) Slope Elevation
04 Localiser PT 109.90 MHz 18 nm / 33 km 54.05° 41.18° - 20 ft / 6 m (AMSL)
04 Glidescope PT 109.90 MHz 10 nm / 19 km 54.03° 41.16° 3.00° 59 ft / 18 m (AMSL)
04 DME PT 109.90 MHz 18 nm / 33 km - - - 59 ft / 18 m (AMSL)

Popular Alternatives